createdAt,value
2023-03-15T00:04:49.394Z,8.80
2023-03-15T00:09:53.924Z,8.70
2023-03-15T00:14:57.029Z,8.80
2023-03-15T00:20:00.152Z,8.80
2023-03-15T00:25:04.856Z,8.80
2023-03-15T00:30:08.974Z,8.90
2023-03-15T00:35:12.937Z,8.90
2023-03-15T00:40:17.842Z,8.90
2023-03-15T00:45:22.386Z,8.80
2023-03-15T00:50:25.737Z,8.70
2023-03-15T00:55:30.223Z,8.70
2023-03-15T01:00:33.434Z,8.60
2023-03-15T01:05:37.698Z,8.30
2023-03-15T01:10:42.249Z,8.00
2023-03-15T01:15:47.630Z,7.80
2023-03-15T01:20:50.723Z,7.60
2023-03-15T01:25:55.187Z,7.40
2023-03-15T01:31:00.016Z,7.30
2023-03-15T01:36:06.216Z,7.20
2023-03-15T01:41:11.557Z,7.10
2023-03-15T01:46:23.529Z,7.00
2023-03-15T01:51:34.961Z,6.80
2023-03-15T01:56:42.846Z,6.70
2023-03-15T02:01:46.662Z,6.60
2023-03-15T02:06:49.843Z,6.60
2023-03-15T02:11:54.405Z,6.50
2023-03-15T02:16:57.483Z,6.60
2023-03-15T02:22:12.186Z,6.50
2023-03-15T02:27:22.962Z,6.50
2023-03-15T02:32:26.127Z,6.50
2023-03-15T02:37:29.240Z,6.40
2023-03-15T02:42:33.752Z,6.30
2023-03-15T02:47:37.034Z,6.30
2023-03-15T02:52:40.248Z,6.30
2023-03-15T02:57:44.703Z,6.30
2023-03-15T03:02:49.338Z,6.20
2023-03-15T03:07:52.807Z,6.10
2023-03-15T03:12:57.462Z,6.10
2023-03-15T03:18:00.770Z,6.10
2023-03-15T03:23:06.204Z,6.20
2023-03-15T03:28:10.659Z,6.20
2023-03-15T03:33:13.733Z,6.10
2023-03-15T03:38:17.452Z,6.00
2023-03-15T03:43:21.928Z,5.90
2023-03-15T03:48:25.063Z,5.80
2023-03-15T03:53:28.460Z,5.70
2023-03-15T03:58:33.214Z,5.60
2023-03-15T04:03:36.370Z,5.50
2023-03-15T04:08:39.453Z,5.50
2023-03-15T04:13:44.032Z,5.50
2023-03-15T04:18:47.490Z,5.50
2023-03-15T04:23:50.770Z,5.50
2023-03-15T04:28:56.764Z,5.60
2023-03-15T04:33:59.922Z,5.60
2023-03-15T04:39:07.032Z,5.60
2023-03-15T04:44:11.495Z,5.70
2023-03-15T04:49:14.670Z,5.70
2023-03-15T04:54:18.897Z,5.80
2023-03-15T04:59:23.367Z,5.80
2023-03-15T05:04:27.556Z,5.80
2023-03-15T05:09:39.802Z,5.80
2023-03-15T05:14:44.697Z,5.80
2023-03-15T05:19:47.810Z,5.70
2023-03-15T05:24:53.847Z,5.70
2023-03-15T05:29:58.599Z,5.60
2023-03-15T05:35:02.417Z,5.60
2023-03-15T05:40:08.304Z,5.50
2023-03-15T05:45:13.334Z,5.50
2023-03-15T05:50:16.630Z,5.50
2023-03-15T05:55:19.787Z,5.50
2023-03-15T06:00:24.680Z,5.40
2023-03-15T06:05:28.062Z,5.40
2023-03-15T06:10:31.328Z,5.40
2023-03-15T06:15:35.969Z,5.40
2023-03-15T06:20:39.802Z,5.40
2023-03-15T06:25:43.029Z,5.40
2023-03-15T06:30:47.639Z,5.40
2023-03-15T06:35:51.335Z,5.40
2023-03-15T06:40:55.715Z,5.40
2023-03-15T06:46:00.356Z,5.40
2023-03-15T06:51:04.231Z,5.50
2023-03-15T06:56:07.821Z,5.50
2023-03-15T07:01:16.791Z,5.50
2023-03-15T07:06:20.030Z,5.60
2023-03-15T07:11:23.333Z,5.70
2023-03-15T07:16:28.092Z,5.70
2023-03-15T07:21:31.427Z,5.80
2023-03-15T07:26:34.611Z,5.90
2023-03-15T07:31:39.115Z,6.00
2023-03-15T07:36:42.302Z,6.00
2023-03-15T07:41:45.414Z,6.00
2023-03-15T07:46:49.952Z,6.10
2023-03-15T07:51:53.232Z,6.20
2023-03-15T07:56:56.408Z,6.20
2023-03-15T08:02:02.826Z,6.30
2023-03-15T08:07:06.567Z,6.40
2023-03-15T08:12:09.877Z,6.50
2023-03-15T08:17:16.239Z,6.60
2023-03-15T08:22:20.421Z,6.70
2023-03-15T08:27:23.605Z,6.90
2023-03-15T08:32:28.523Z,7.10
2023-03-15T08:37:31.680Z,7.20
2023-03-15T08:42:34.834Z,7.20
2023-03-15T08:47:39.580Z,7.30
2023-03-15T08:52:43.728Z,7.40
2023-03-15T08:57:47.016Z,7.50
2023-03-15T09:02:53.223Z,7.70
2023-03-15T09:07:56.311Z,7.90
2023-03-15T09:12:59.471Z,7.90
2023-03-15T09:18:03.934Z,8.10
2023-03-15T09:23:07.804Z,8.10
2023-03-15T09:28:12.860Z,8.20
2023-03-15T09:33:17.388Z,8.30
2023-03-15T09:38:22.136Z,8.40
2023-03-15T09:43:45.686Z,8.50
2023-03-15T09:48:54.297Z,8.50
2023-03-15T09:54:01.633Z,8.50
2023-03-15T09:59:06.659Z,8.50
2023-03-15T10:04:17.855Z,8.60
2023-03-15T10:09:23.761Z,8.50
2023-03-15T10:14:41.261Z,8.50
2023-03-15T10:19:51.295Z,8.50
2023-03-15T10:25:00.491Z,8.60
2023-03-15T10:30:13.824Z,8.60
2023-03-15T10:35:20.337Z,8.80
2023-03-15T10:40:44.070Z,9.00
2023-03-15T10:46:01.045Z,9.20
2023-03-15T10:51:08.485Z,9.40
2023-03-15T10:56:21.078Z,9.40
2023-03-15T11:01:26.775Z,9.40
2023-03-15T11:06:41.719Z,9.30
2023-03-15T11:12:00.827Z,9.30
2023-03-15T11:17:06.895Z,9.40
2023-03-15T11:22:14.796Z,9.60
2023-03-15T11:27:21.320Z,9.90
2023-03-15T11:32:26.318Z,10.10
2023-03-15T11:37:39.400Z,10.20
2023-03-15T11:42:49.407Z,10.20
2023-03-15T11:47:57.595Z,10.20
2023-03-15T11:53:06.944Z,10.30
2023-03-15T11:58:28.942Z,10.40
2023-03-15T12:03:39.281Z,10.40
2023-03-15T12:08:49.533Z,10.40
2023-03-15T12:14:03.934Z,10.30
2023-03-15T12:19:15.618Z,10.30
2023-03-15T12:24:26.390Z,10.30
2023-03-15T12:29:32.507Z,10.30
2023-03-15T12:34:46.883Z,10.40
2023-03-15T12:39:53.516Z,10.40
2023-03-15T12:45:16.643Z,10.40
2023-03-15T12:50:39.556Z,10.40
2023-03-15T12:55:45.006Z,10.40
2023-03-15T13:00:48.631Z,10.40
2023-03-15T13:06:04.557Z,10.40
2023-03-15T13:11:18.546Z,10.30
2023-03-15T13:16:31.194Z,10.40
2023-03-15T13:21:37.452Z,10.40
2023-03-15T13:26:54.652Z,10.40
2023-03-15T13:32:12.808Z,10.40
2023-03-15T13:37:19.006Z,10.40
2023-03-15T13:42:25.474Z,10.30
2023-03-15T13:47:28.902Z,10.30
2023-03-15T13:52:32.212Z,10.30
2023-03-15T13:57:38.048Z,10.30
2023-03-15T14:02:49.269Z,10.30
2023-03-15T14:07:59.086Z,10.10
2023-03-15T14:18:37.257Z,10.00
2023-03-15T14:23:42.690Z,9.90
2023-03-15T14:28:50.859Z,9.80
2023-03-15T14:34:00.801Z,9.70
2023-03-15T14:39:04.921Z,9.60
2023-03-15T14:44:08.011Z,9.60
2023-03-15T14:49:18.382Z,9.50
2023-03-15T14:54:21.511Z,9.50
2023-03-15T14:59:24.678Z,9.50
2023-03-15T15:04:34.405Z,9.50
2023-03-15T15:09:39.103Z,9.50
2023-03-15T15:14:43.827Z,9.50
2023-03-15T15:19:48.277Z,9.40
2023-03-15T15:24:51.480Z,9.40
2023-03-15T15:29:54.602Z,9.40
2023-03-15T15:34:59.613Z,9.50
2023-03-15T15:40:04.282Z,9.50
2023-03-15T15:45:13.100Z,9.40
2023-03-15T15:50:19.636Z,9.20
2023-03-15T15:55:24.696Z,9.10
2023-03-15T16:00:29.447Z,9.10
2023-03-15T16:05:34.027Z,9.10
2023-03-15T16:10:37.118Z,9.00
2023-03-15T16:15:40.275Z,9.10
2023-03-15T16:20:44.912Z,9.10
2023-03-15T16:25:50.293Z,9.20
2023-03-15T16:30:53.569Z,9.20
2023-03-15T16:35:58.225Z,9.20
2023-03-15T16:41:02.149Z,9.20
2023-03-15T16:46:13.382Z,9.20
2023-03-15T16:51:18.503Z,9.20
2023-03-15T16:56:21.670Z,9.20
2023-03-15T17:01:29.115Z,9.30
2023-03-15T17:06:33.901Z,9.30
2023-03-15T17:11:40.459Z,9.20
2023-03-15T17:16:43.808Z,9.10
2023-03-15T17:21:49.253Z,9.10
2023-03-15T17:26:52.603Z,8.90
2023-03-15T17:31:55.727Z,8.80
2023-03-15T17:37:00.398Z,8.70
2023-03-15T17:42:03.480Z,8.70
2023-03-15T17:47:09.450Z,8.70
2023-03-15T17:52:17.289Z,8.70
2023-03-15T17:57:20.556Z,8.80
2023-03-15T18:02:23.899Z,8.80
2023-03-15T18:07:30.885Z,8.90
2023-03-15T18:12:34.130Z,8.80
2023-03-15T18:17:37.198Z,8.80
2023-03-15T18:22:41.748Z,8.70
2023-03-15T18:27:45.063Z,8.60
2023-03-15T18:32:48.807Z,8.50
2023-03-15T18:37:56.007Z,8.40
2023-03-15T18:43:00.326Z,8.40
2023-03-15T18:48:04.558Z,8.30
2023-03-15T18:53:09.335Z,8.30
2023-03-15T18:58:13.304Z,8.30
2023-03-15T19:03:16.574Z,8.20
2023-03-15T19:08:21.239Z,8.10
2023-03-15T19:13:24.370Z,8.10
2023-03-15T19:18:27.710Z,8.00
2023-03-15T19:23:34.269Z,8.00
2023-03-15T19:28:37.520Z,8.00
2023-03-15T19:33:40.743Z,8.00
2023-03-15T19:38:46.517Z,8.00
2023-03-15T19:43:49.688Z,8.00
2023-03-15T19:48:52.934Z,8.00
2023-03-15T19:53:57.708Z,7.90
2023-03-15T19:59:00.832Z,8.00
2023-03-15T20:04:04.154Z,7.90
2023-03-15T20:09:08.879Z,7.90
2023-03-15T20:14:12.152Z,7.90
2023-03-15T20:19:15.344Z,7.80
2023-03-15T20:24:19.906Z,7.80
2023-03-15T20:29:23.504Z,7.80
2023-03-15T20:34:26.845Z,7.70
2023-03-15T20:39:31.383Z,7.70
2023-03-15T20:44:34.566Z,7.60
2023-03-15T20:49:37.998Z,7.50
2023-03-15T20:54:44.743Z,7.50
2023-03-15T20:59:47.814Z,7.40
2023-03-15T21:04:51.690Z,7.40
2023-03-15T21:09:56.272Z,7.40
2023-03-15T21:14:59.376Z,7.40
2023-03-15T21:20:03.048Z,7.40
2023-03-15T21:25:08.842Z,7.40
2023-03-15T21:30:14.208Z,7.30
2023-03-15T21:35:18.113Z,7.30
2023-03-15T21:40:23.082Z,7.30
2023-03-15T21:45:26.482Z,7.20
2023-03-15T21:50:29.780Z,7.10
2023-03-15T21:55:34.590Z,7.00
2023-03-15T22:00:38.157Z,6.70
2023-03-15T22:05:41.878Z,6.50
2023-03-15T22:10:46.577Z,6.50
2023-03-15T22:15:49.872Z,6.40
2023-03-15T22:20:53.261Z,6.40
2023-03-15T22:25:57.736Z,6.40
2023-03-15T22:31:01.635Z,6.40
2023-03-15T22:36:05.094Z,6.40
2023-03-15T22:41:14.000Z,6.40
2023-03-15T22:46:17.473Z,6.30
2023-03-15T22:51:20.919Z,6.30
2023-03-15T22:56:25.725Z,6.20
2023-03-15T23:01:29.212Z,6.10
2023-03-15T23:06:32.380Z,6.10
2023-03-15T23:11:36.838Z,6.00
2023-03-15T23:16:39.986Z,6.00
2023-03-15T23:21:43.074Z,6.00
2023-03-15T23:26:47.584Z,6.00
2023-03-15T23:31:50.717Z,5.90
2023-03-15T23:36:54.306Z,5.90
2023-03-15T23:41:58.761Z,5.90
2023-03-15T23:47:05.523Z,5.80
2023-03-15T23:52:09.120Z,5.80
2023-03-15T23:57:15.550Z,5.80
